sensor_id;sensor_type;location;lat;lon;timestamp;pressure;altitude;pressure_sealevel;temperature;humidity
7075;BME280;3578;51.568;6.932;2023-02-18T00:01:33;47943.38;;;-144.14;100.00
7075;BME280;3578;51.568;6.932;2023-02-18T00:04:00;47935.38;;;-144.14;100.00
7075;BME280;3578;51.568;6.932;2023-02-18T00:06:29;47931.38;;;-144.14;100.00
7075;BME280;3578;51.568;6.932;2023-02-18T00:08:57;47927.38;;;-144.14;100.00
7075;BME280;3578;51.568;6.932;2023-02-18T00:11:29;47885.38;;;-144.14;100.00
7075;BME280;3578;51.568;6.932;2023-02-18T00:13:58;47879.34;;;-144.14;100.00
7075;BME280;3578;51.568;6.932;2023-02-18T00:16:29;47851.34;;;-144.14;100.00
7075;BME280;3578;51.568;6.932;2023-02-18T00:18:59;47851.34;;;-144.14;100.00
7075;BME280;3578;51.568;6.932;2023-02-18T00:21:27;47865.34;;;-144.14;100.00
7075;BME280;3578;51.568;6.932;2023-02-18T00:23:54;47811.31;;;-144.14;100.00
7075;BME280;3578;51.568;6.932;2023-02-18T00:26:21;47839.34;;;-144.14;100.00
7075;BME280;3578;51.568;6.932;2023-02-18T00:28:49;47771.31;;;-144.14;100.00
7075;BME280;3578;51.568;6.932;2023-02-18T00:31:22;47801.31;;;-144.14;100.00
7075;BME280;3578;51.568;6.932;2023-02-18T00:33:50;47779.31;;;-144.14;100.00
7075;BME280;3578;51.568;6.932;2023-02-18T00:36:19;47811.31;;;-144.14;100.00
7075;BME280;3578;51.568;6.932;2023-02-18T00:38:49;47857.34;;;-144.14;100.00
7075;BME280;3578;51.568;6.932;2023-02-18T00:41:16;47803.31;;;-144.14;100.00
7075;BME280;3578;51.568;6.932;2023-02-18T00:43:43;47805.31;;;-144.14;100.00
7075;BME280;3578;51.568;6.932;2023-02-18T00:46:11;47803.31;;;-144.14;100.00
7075;BME280;3578;51.568;6.932;2023-02-18T00:48:39;47795.31;;;-144.14;100.00
7075;BME280;3578;51.568;6.932;2023-02-18T00:51:08;47793.31;;;-144.14;100.00
7075;BME280;3578;51.568;6.932;2023-02-18T00:53:35;47787.31;;;-144.14;100.00
7075;BME280;3578;51.568;6.932;2023-02-18T00:56:03;47771.31;;;-144.14;100.00
7075;BME280;3578;51.568;6.932;2023-02-18T00:58:31;47755.31;;;-144.14;100.00
7075;BME280;3578;51.568;6.932;2023-02-18T01:00:58;47729.28;;;-144.14;100.00
7075;BME280;3578;51.568;6.932;2023-02-18T01:03:25;47739.31;;;-144.14;100.00
7075;BME280;3578;51.568;6.932;2023-02-18T01:05:53;47743.31;;;-144.14;100.00
7075;BME280;3578;51.568;6.932;2023-02-18T01:08:22;47763.31;;;-144.14;100.00
7075;BME280;3578;51.568;6.932;2023-02-18T01:10:54;47749.31;;;-144.14;100.00
7075;BME280;3578;51.568;6.932;2023-02-18T01:13:21;47735.28;;;-144.14;100.00
7075;BME280;3578;51.568;6.932;2023-02-18T01:15:49;47745.31;;;-144.14;100.00
7075;BME280;3578;51.568;6.932;2023-02-18T01:18:16;47771.31;;;-144.14;100.00
7075;BME280;3578;51.568;6.932;2023-02-18T01:20:44;47743.31;;;-144.14;100.00
7075;BME280;3578;51.568;6.932;2023-02-18T01:23:13;47713.28;;;-144.14;100.00
7075;BME280;3578;51.568;6.932;2023-02-18T01:25:42;47741.31;;;-144.14;100.00
7075;BME280;3578;51.568;6.932;2023-02-18T01:28:11;47773.31;;;-144.14;100.00
7075;BME280;3578;51.568;6.932;2023-02-18T01:30:39;47771.31;;;-144.14;100.00
7075;BME280;3578;51.568;6.932;2023-02-18T01:33:08;47701.28;;;-144.14;100.00
7075;BME280;3578;51.568;6.932;2023-02-18T01:35:37;47653.25;;;-144.14;100.00
7075;BME280;3578;51.568;6.932;2023-02-18T01:38:05;47671.28;;;-144.14;100.00
7075;BME280;3578;51.568;6.932;2023-02-18T01:40:32;47683.28;;;-144.14;100.00
7075;BME280;3578;51.568;6.932;2023-02-18T01:43:00;47695.28;;;-144.14;100.00
7075;BME280;3578;51.568;6.932;2023-02-18T01:46:02;47767.31;;;-144.14;100.00
7075;BME280;3578;51.568;6.932;2023-02-18T01:48:33;47735.28;;;-144.14;100.00
7075;BME280;3578;51.568;6.932;2023-02-18T01:51:08;47743.31;;;-144.14;100.00
7075;BME280;3578;51.568;6.932;2023-02-18T01:53:41;47771.31;;;-144.14;100.00
7075;BME280;3578;51.568;6.932;2023-02-18T01:56:14;47765.31;;;-144.14;100.00
7075;BME280;3578;51.568;6.932;2023-02-18T01:58:43;47747.31;;;-144.14;100.00
7075;BME280;3578;51.568;6.932;2023-02-18T02:01:10;47737.28;;;-144.14;100.00
7075;BME280;3578;51.568;6.932;2023-02-18T02:03:37;47727.28;;;-144.14;100.00
7075;BME280;3578;51.568;6.932;2023-02-18T02:06:13;47629.25;;;-144.14;100.00
7075;BME280;3578;51.568;6.932;2023-02-18T02:08:40;47733.28;;;-144.14;100.00
7075;BME280;3578;51.568;6.932;2023-02-18T02:11:19;47735.28;;;-144.14;100.00
7075;BME280;3578;51.568;6.932;2023-02-18T02:14:15;47735.28;;;-144.14;100.00
7075;BME280;3578;51.568;6.932;2023-02-18T02:16:57;47751.31;;;-144.14;100.00
7075;BME280;3578;51.568;6.932;2023-02-18T02:20:08;47783.31;;;-144.14;100.00
7075;BME280;3578;51.568;6.932;2023-02-18T02:23:25;47897.38;;;-144.14;100.00
7075;BME280;3578;51.568;6.932;2023-02-18T02:26:33;47915.38;;;-144.14;100.00
7075;BME280;3578;51.568;6.932;2023-02-18T02:29:44;48015.44;;;-144.14;100.00
7075;BME280;3578;51.568;6.932;2023-02-18T02:32:46;47971.41;;;-144.14;100.00
7075;BME280;3578;51.568;6.932;2023-02-18T02:35:23;47979.41;;;-144.14;100.00
7075;BME280;3578;51.568;6.932;2023-02-18T02:37:58;48023.44;;;-144.14;100.00
7075;BME280;3578;51.568;6.932;2023-02-18T02:40:35;48041.44;;;-144.14;100.00
7075;BME280;3578;51.568;6.932;2023-02-18T02:43:11;48055.44;;;-144.14;100.00
7075;BME280;3578;51.568;6.932;2023-02-18T02:45:50;48027.44;;;-144.14;100.00
7075;BME280;3578;51.568;6.932;2023-02-18T02:48:30;48059.44;;;-144.14;100.00
7075;BME280;3578;51.568;6.932;2023-02-18T02:51:06;48077.47;;;-144.14;100.00
7075;BME280;3578;51.568;6.932;2023-02-18T02:53:36;48071.44;;;-144.14;100.00
7075;BME280;3578;51.568;6.932;2023-02-18T02:56:05;48087.47;;;-144.14;100.00
7075;BME280;3578;51.568;6.932;2023-02-18T02:58:33;48063.44;;;-144.14;100.00
7075;BME280;3578;51.568;6.932;2023-02-18T03:01:18;48029.44;;;-144.14;100.00
7075;BME280;3578;51.568;6.932;2023-02-18T03:07:17;47991.41;;;-144.14;100.00
7075;BME280;3578;51.568;6.932;2023-02-18T03:10:03;48107.47;;;-144.14;100.00
7075;BME280;3578;51.568;6.932;2023-02-18T03:12:57;48095.47;;;-144.14;100.00
7075;BME280;3578;51.568;6.932;2023-02-18T03:15:39;48073.44;;;-144.14;100.00
7075;BME280;3578;51.568;6.932;2023-02-18T03:18:17;47933.38;;;-144.14;100.00
7075;BME280;3578;51.568;6.932;2023-02-18T03:20:52;47959.41;;;-144.14;100.00
7075;BME280;3578;51.568;6.932;2023-02-18T03:23:26;47967.41;;;-144.14;100.00
7075;BME280;3578;51.568;6.932;2023-02-18T03:25:55;47965.41;;;-144.14;100.00
7075;BME280;3578;51.568;6.932;2023-02-18T03:28:26;47949.41;;;-144.14;100.00
7075;BME280;3578;51.568;6.932;2023-02-18T03:31:00;47947.38;;;-144.14;100.00
7075;BME280;3578;51.568;6.932;2023-02-18T03:33:34;48023.44;;;-144.14;100.00
7075;BME280;3578;51.568;6.932;2023-02-18T03:36:03;48109.47;;;-144.14;100.00
7075;BME280;3578;51.568;6.932;2023-02-18T03:38:37;48103.47;;;-144.14;100.00
7075;BME280;3578;51.568;6.932;2023-02-18T03:41:05;48097.47;;;-144.14;100.00
7075;BME280;3578;51.568;6.932;2023-02-18T03:43:32;48095.47;;;-144.14;100.00
7075;BME280;3578;51.568;6.932;2023-02-18T03:46:00;47995.41;;;-144.14;100.00
7075;BME280;3578;51.568;6.932;2023-02-18T03:48:28;47991.41;;;-144.14;100.00
7075;BME280;3578;51.568;6.932;2023-02-18T03:50:55;47963.41;;;-144.14;100.00
7075;BME280;3578;51.568;6.932;2023-02-18T03:53:22;47949.41;;;-144.14;100.00
7075;BME280;3578;51.568;6.932;2023-02-18T03:55:50;47955.41;;;-144.14;100.00
7075;BME280;3578;51.568;6.932;2023-02-18T03:58:17;47945.38;;;-144.14;100.00
7075;BME280;3578;51.568;6.932;2023-02-18T04:00:44;47963.41;;;-144.14;100.00
7075;BME280;3578;51.568;6.932;2023-02-18T04:03:11;47991.41;;;-144.14;100.00
7075;BME280;3578;51.568;6.932;2023-02-18T04:05:38;47939.38;;;-144.14;100.00
7075;BME280;3578;51.568;6.932;2023-02-18T04:08:05;47905.38;;;-144.14;100.00
7075;BME280;3578;51.568;6.932;2023-02-18T04:10:32;47951.41;;;-144.14;100.00
7075;BME280;3578;51.568;6.932;2023-02-18T04:13:01;47949.41;;;-144.14;100.00
7075;BME280;3578;51.568;6.932;2023-02-18T04:15:28;47967.41;;;-144.14;100.00
7075;BME280;3578;51.568;6.932;2023-02-18T04:17:55;47979.41;;;-144.14;100.00
7075;BME280;3578;51.568;6.932;2023-02-18T04:20:22;48049.44;;;-144.14;100.00
7075;BME280;3578;51.568;6.932;2023-02-18T04:22:49;48007.41;;;-144.14;100.00
7075;BME280;3578;51.568;6.932;2023-02-18T04:25:16;48019.44;;;-144.14;100.00
7075;BME280;3578;51.568;6.932;2023-02-18T04:27:43;48035.44;;;-144.14;100.00
7075;BME280;3578;51.568;6.932;2023-02-18T04:30:12;48015.44;;;-144.14;100.00
7075;BME280;3578;51.568;6.932;2023-02-18T04:32:39;47933.38;;;-144.14;100.00
7075;BME280;3578;51.568;6.932;2023-02-18T04:35:07;48099.47;;;-144.14;100.00
7075;BME280;3578;51.568;6.932;2023-02-18T04:37:34;48089.47;;;-144.14;100.00
7075;BME280;3578;51.568;6.932;2023-02-18T04:40:01;48147.50;;;-144.14;100.00
7075;BME280;3578;51.568;6.932;2023-02-18T04:42:28;48081.47;;;-144.14;100.00
7075;BME280;3578;51.568;6.932;2023-02-18T04:44:55;48105.47;;;-144.14;100.00
7075;BME280;3578;51.568;6.932;2023-02-18T04:47:23;48035.44;;;-144.14;100.00
7075;BME280;3578;51.568;6.932;2023-02-18T04:49:50;48011.41;;;-144.14;100.00
7075;BME280;3578;51.568;6.932;2023-02-18T04:52:18;47951.41;;;-144.14;100.00
7075;BME280;3578;51.568;6.932;2023-02-18T04:54:45;47935.38;;;-144.14;100.00
7075;BME280;3578;51.568;6.932;2023-02-18T04:57:12;47863.34;;;-144.14;100.00
7075;BME280;3578;51.568;6.932;2023-02-18T04:59:39;47821.34;;;-144.14;100.00
7075;BME280;3578;51.568;6.932;2023-02-18T05:02:07;47867.34;;;-144.14;100.00
7075;BME280;3578;51.568;6.932;2023-02-18T05:04:35;47873.34;;;-144.14;100.00
7075;BME280;3578;51.568;6.932;2023-02-18T05:07:02;47847.34;;;-144.14;100.00
7075;BME280;3578;51.568;6.932;2023-02-18T05:09:29;47807.31;;;-144.14;100.00
7075;BME280;3578;51.568;6.932;2023-02-18T05:11:56;47777.31;;;-144.14;100.00
7075;BME280;3578;51.568;6.932;2023-02-18T05:14:23;47751.31;;;-144.14;100.00
7075;BME280;3578;51.568;6.932;2023-02-18T05:16:50;47735.28;;;-144.14;100.00
7075;BME280;3578;51.568;6.932;2023-02-18T05:19:17;47739.31;;;-144.14;100.00
7075;BME280;3578;51.568;6.932;2023-02-18T05:21:46;47675.28;;;-144.14;100.00
7075;BME280;3578;51.568;6.932;2023-02-18T05:24:12;47651.25;;;-144.14;100.00
7075;BME280;3578;51.568;6.932;2023-02-18T05:26:39;47635.25;;;-144.14;100.00
7075;BME280;3578;51.568;6.932;2023-02-18T05:29:07;47677.28;;;-144.14;100.00
7075;BME280;3578;51.568;6.932;2023-02-18T05:31:33;47709.28;;;-144.14;100.00
7075;BME280;3578;51.568;6.932;2023-02-18T05:34:02;47667.28;;;-144.14;100.00
7075;BME280;3578;51.568;6.932;2023-02-18T05:36:29;47659.28;;;-144.14;100.00
7075;BME280;3578;51.568;6.932;2023-02-18T05:38:58;47663.28;;;-144.14;100.00
7075;BME280;3578;51.568;6.932;2023-02-18T05:41:25;47701.28;;;-144.14;100.00
7075;BME280;3578;51.568;6.932;2023-02-18T05:43:52;47683.28;;;-144.14;100.00
7075;BME280;3578;51.568;6.932;2023-02-18T05:46:35;47737.28;;;-144.14;100.00
7075;BME280;3578;51.568;6.932;2023-02-18T05:49:02;47723.28;;;-144.14;100.00
7075;BME280;3578;51.568;6.932;2023-02-18T05:51:29;47627.25;;;-144.14;100.00
7075;BME280;3578;51.568;6.932;2023-02-18T05:53:58;47629.25;;;-144.14;100.00
7075;BME280;3578;51.568;6.932;2023-02-18T05:56:25;47645.25;;;-144.14;100.00
7075;BME280;3578;51.568;6.932;2023-02-18T05:58:52;47647.25;;;-144.14;100.00
7075;BME280;3578;51.568;6.932;2023-02-18T06:01:19;47655.25;;;-144.14;100.00
7075;BME280;3578;51.568;6.932;2023-02-18T06:03:46;47607.25;;;-144.14;100.00
7075;BME280;3578;51.568;6.932;2023-02-18T06:06:13;47637.25;;;-144.14;100.00
7075;BME280;3578;51.568;6.932;2023-02-18T06:08:40;47623.25;;;-144.14;100.00
7075;BME280;3578;51.568;6.932;2023-02-18T06:11:08;47583.25;;;-144.14;100.00
7075;BME280;3578;51.568;6.932;2023-02-18T06:13:35;47539.22;;;-144.14;100.00
7075;BME280;3578;51.568;6.932;2023-02-18T06:16:02;47533.22;;;-144.14;100.00
7075;BME280;3578;51.568;6.932;2023-02-18T06:18:29;47543.22;;;-144.14;100.00
7075;BME280;3578;51.568;6.932;2023-02-18T06:20:56;47517.22;;;-144.14;100.00
7075;BME280;3578;51.568;6.932;2023-02-18T06:23:23;47483.19;;;-144.14;100.00
7075;BME280;3578;51.568;6.932;2023-02-18T06:25:50;47455.19;;;-144.14;100.00
7075;BME280;3578;51.568;6.932;2023-02-18T06:28:19;47451.19;;;-144.14;100.00
7075;BME280;3578;51.568;6.932;2023-02-18T06:30:46;47459.19;;;-144.14;100.00
7075;BME280;3578;51.568;6.932;2023-02-18T06:33:13;47441.19;;;-144.14;100.00
7075;BME280;3578;51.568;6.932;2023-02-18T06:35:40;47415.19;;;-144.14;100.00
7075;BME280;3578;51.568;6.932;2023-02-18T06:38:07;47375.16;;;-144.14;100.00
7075;BME280;3578;51.568;6.932;2023-02-18T06:40:37;47357.16;;;-144.14;100.00
7075;BME280;3578;51.568;6.932;2023-02-18T06:43:05;47325.16;;;-144.14;100.00
7075;BME280;3578;51.568;6.932;2023-02-18T06:45:37;47323.16;;;-144.14;100.00
7075;BME280;3578;51.568;6.932;2023-02-18T06:48:04;47319.16;;;-144.14;100.00
7075;BME280;3578;51.568;6.932;2023-02-18T06:50:31;47295.16;;;-144.14;100.00
7075;BME280;3578;51.568;6.932;2023-02-18T06:52:58;47285.13;;;-144.14;100.00
7075;BME280;3578;51.568;6.932;2023-02-18T06:55:25;47235.13;;;-144.14;100.00
7075;BME280;3578;51.568;6.932;2023-02-18T06:57:52;47203.13;;;-144.14;100.00
7075;BME280;3578;51.568;6.932;2023-02-18T07:00:20;47183.13;;;-144.14;100.00
7075;BME280;3578;51.568;6.932;2023-02-18T07:02:48;47111.09;;;-144.14;100.00
7075;BME280;3578;51.568;6.932;2023-02-18T07:05:16;47135.09;;;-144.14;100.00
7075;BME280;3578;51.568;6.932;2023-02-18T07:07:43;47143.09;;;-144.14;100.00
7075;BME280;3578;51.568;6.932;2023-02-18T07:10:10;47161.09;;;-144.14;100.00
7075;BME280;3578;51.568;6.932;2023-02-18T07:12:37;47191.13;;;-144.14;100.00
7075;BME280;3578;51.568;6.932;2023-02-18T07:15:05;47219.13;;;-144.14;100.00
7075;BME280;3578;51.568;6.932;2023-02-18T07:17:32;47189.13;;;-144.14;100.00
7075;BME280;3578;51.568;6.932;2023-02-18T07:20:00;47213.13;;;-144.14;100.00
7075;BME280;3578;51.568;6.932;2023-02-18T07:22:27;47223.13;;;-144.14;100.00
7075;BME280;3578;51.568;6.932;2023-02-18T07:24:55;47215.13;;;-144.14;100.00
7075;BME280;3578;51.568;6.932;2023-02-18T07:27:22;47247.13;;;-144.14;100.00
7075;BME280;3578;51.568;6.932;2023-02-18T07:29:49;47219.13;;;-144.14;100.00
7075;BME280;3578;51.568;6.932;2023-02-18T07:32:18;47221.13;;;-144.14;100.00
7075;BME280;3578;51.568;6.932;2023-02-18T07:34:45;47181.13;;;-144.14;100.00
7075;BME280;3578;51.568;6.932;2023-02-18T07:37:13;47177.13;;;-144.14;100.00
7075;BME280;3578;51.568;6.932;2023-02-18T07:39:41;47149.09;;;-144.14;100.00
7075;BME280;3578;51.568;6.932;2023-02-18T07:42:09;47131.09;;;-144.14;100.00
7075;BME280;3578;51.568;6.932;2023-02-18T07:44:37;47169.09;;;-144.14;100.00
7075;BME280;3578;51.568;6.932;2023-02-18T07:47:06;47071.09;;;-144.14;100.00
7075;BME280;3578;51.568;6.932;2023-02-18T07:49:35;46915.06;;;-144.14;100.00
7075;BME280;3578;51.568;6.932;2023-02-18T07:52:02;46887.06;;;-144.14;100.00
7075;BME280;3578;51.568;6.932;2023-02-18T07:54:30;46867.06;;;-144.14;100.00
7075;BME280;3578;51.568;6.932;2023-02-18T07:57:03;46833.03;;;-144.14;100.00
7075;BME280;3578;51.568;6.932;2023-02-18T07:59:30;46887.06;;;-144.14;100.00
7075;BME280;3578;51.568;6.932;2023-02-18T08:02:01;46911.06;;;-144.14;100.00
7075;BME280;3578;51.568;6.932;2023-02-18T08:04:30;46991.06;;;-144.14;100.00
7075;BME280;3578;51.568;6.932;2023-02-18T08:06:57;46995.06;;;-144.14;100.00
7075;BME280;3578;51.568;6.932;2023-02-18T08:09:24;47011.06;;;-144.14;100.00
7075;BME280;3578;51.568;6.932;2023-02-18T08:11:52;47055.09;;;-144.14;100.00
7075;BME280;3578;51.568;6.932;2023-02-18T08:14:19;47103.09;;;-144.14;100.00
7075;BME280;3578;51.568;6.932;2023-02-18T08:16:46;47093.09;;;-144.14;100.00
7075;BME280;3578;51.568;6.932;2023-02-18T08:19:13;47069.09;;;-144.14;100.00
7075;BME280;3578;51.568;6.932;2023-02-18T08:21:40;47219.13;;;-144.14;100.00
7075;BME280;3578;51.568;6.932;2023-02-18T08:24:07;47283.13;;;-144.14;100.00
7075;BME280;3578;51.568;6.932;2023-02-18T08:26:34;47341.16;;;-144.14;100.00
7075;BME280;3578;51.568;6.932;2023-02-18T08:29:03;47413.19;;;-144.14;100.00
7075;BME280;3578;51.568;6.932;2023-02-18T08:31:30;47433.19;;;-144.14;100.00
7075;BME280;3578;51.568;6.932;2023-02-18T08:33:59;47475.19;;;-144.14;100.00
7075;BME280;3578;51.568;6.932;2023-02-18T08:36:27;47517.22;;;-144.14;100.00
7075;BME280;3578;51.568;6.932;2023-02-18T08:38:54;47495.22;;;-144.14;100.00
7075;BME280;3578;51.568;6.932;2023-02-18T08:41:21;47559.22;;;-144.14;100.00
7075;BME280;3578;51.568;6.932;2023-02-18T08:43:48;47607.25;;;-144.14;100.00
7075;BME280;3578;51.568;6.932;2023-02-18T08:46:17;47651.25;;;-144.14;100.00
7075;BME280;3578;51.568;6.932;2023-02-18T08:48:44;47713.28;;;-144.14;100.00
7075;BME280;3578;51.568;6.932;2023-02-18T08:51:13;47755.31;;;-144.14;100.00
7075;BME280;3578;51.568;6.932;2023-02-18T08:53:42;47863.34;;;-144.14;100.00
7075;BME280;3578;51.568;6.932;2023-02-18T08:56:09;47879.34;;;-144.14;100.00
7075;BME280;3578;51.568;6.932;2023-02-18T08:58:38;47827.34;;;-144.14;100.00
7075;BME280;3578;51.568;6.932;2023-02-18T09:01:08;47923.38;;;-144.14;100.00
7075;BME280;3578;51.568;6.932;2023-02-18T09:03:37;48081.47;;;-144.14;100.00
7075;BME280;3578;51.568;6.932;2023-02-18T09:06:06;48055.44;;;-144.14;100.00
7075;BME280;3578;51.568;6.932;2023-02-18T09:08:33;48135.50;;;-144.14;100.00
7075;BME280;3578;51.568;6.932;2023-02-18T09:11:02;48083.47;;;-144.14;100.00
7075;BME280;3578;51.568;6.932;2023-02-18T09:13:30;48137.50;;;-144.14;100.00
7075;BME280;3578;51.568;6.932;2023-02-18T09:16:00;48187.50;;;-144.14;100.00
7075;BME280;3578;51.568;6.932;2023-02-18T09:18:28;48263.56;;;-144.14;100.00
7075;BME280;3578;51.568;6.932;2023-02-18T09:20:57;48389.63;;;-144.14;100.00
7075;BME280;3578;51.568;6.932;2023-02-18T09:23:26;48459.69;;;-144.14;100.00
7075;BME280;3578;51.568;6.932;2023-02-18T09:25:54;48555.75;;;-144.14;100.00
7075;BME280;3578;51.568;6.932;2023-02-18T09:28:22;48535.72;;;-144.14;100.00
7075;BME280;3578;51.568;6.932;2023-02-18T09:30:49;48599.75;;;-144.14;100.00
7075;BME280;3578;51.568;6.932;2023-02-18T09:33:16;48613.78;;;-144.14;100.00
7075;BME280;3578;51.568;6.932;2023-02-18T09:35:45;48651.81;;;-144.14;100.00
7075;BME280;3578;51.568;6.932;2023-02-18T09:38:15;48743.88;;;-144.14;100.00
7075;BME280;3578;51.568;6.932;2023-02-18T09:40:44;48655.81;;;-144.14;100.00
7075;BME280;3578;51.568;6.932;2023-02-18T09:43:21;48651.81;;;-144.14;100.00
7075;BME280;3578;51.568;6.932;2023-02-18T09:45:50;48535.72;;;-144.14;100.00
7075;BME280;3578;51.568;6.932;2023-02-18T09:48:21;48567.75;;;-144.14;100.00
7075;BME280;3578;51.568;6.932;2023-02-18T09:50:52;48519.72;;;-144.14;100.00
7075;BME280;3578;51.568;6.932;2023-02-18T09:53:22;48487.69;;;-144.14;100.00
7075;BME280;3578;51.568;6.932;2023-02-18T09:55:52;48523.72;;;-144.14;100.00
7075;BME280;3578;51.568;6.932;2023-02-18T09:58:22;48647.78;;;-144.14;100.00
7075;BME280;3578;51.568;6.932;2023-02-18T10:00:55;48827.94;;;-144.14;100.00
7075;BME280;3578;51.568;6.932;2023-02-18T10:03:25;48907.97;;;-144.14;100.00
7075;BME280;3578;51.568;6.932;2023-02-18T10:05:57;48901.97;;;-144.14;100.00
7075;BME280;3578;51.568;6.932;2023-02-18T10:08:28;48938.00;;;-144.14;100.00
7075;BME280;3578;51.568;6.932;2023-02-18T10:10:55;48914.00;;;-144.14;100.00
7075;BME280;3578;51.568;6.932;2023-02-18T10:13:26;48940.00;;;-144.14;100.00
7075;BME280;3578;51.568;6.932;2023-02-18T10:15:54;49000.06;;;-144.14;100.00
7075;BME280;3578;51.568;6.932;2023-02-18T10:18:27;49054.09;;;-144.14;100.00
7075;BME280;3578;51.568;6.932;2023-02-18T10:21:04;48984.03;;;-144.14;100.00
7075;BME280;3578;51.568;6.932;2023-02-18T10:23:37;48944.00;;;-144.14;100.00
7075;BME280;3578;51.568;6.932;2023-02-18T10:26:09;48954.03;;;-144.14;100.00
7075;BME280;3578;51.568;6.932;2023-02-18T10:28:38;48837.94;;;-144.14;100.00
7075;BME280;3578;51.568;6.932;2023-02-18T10:31:08;48645.78;;;-144.14;100.00
7075;BME280;3578;51.568;6.932;2023-02-18T10:33:44;48579.75;;;-144.14;100.00
7075;BME280;3578;51.568;6.932;2023-02-18T10:36:22;48421.66;;;-144.14;100.00
7075;BME280;3578;51.568;6.932;2023-02-18T10:39:19;48503.69;;;-144.14;100.00
7075;BME280;3578;51.568;6.932;2023-02-18T10:42:05;48331.59;;;-144.14;100.00
7075;BME280;3578;51.568;6.932;2023-02-18T10:44:43;48299.56;;;-144.14;100.00
7075;BME280;3578;51.568;6.932;2023-02-18T10:47:23;48209.53;;;-144.14;100.00
7075;BME280;3578;51.568;6.932;2023-02-18T10:50:04;48075.47;;;-144.14;100.00
7075;BME280;3578;51.568;6.932;2023-02-18T10:52:39;48007.41;;;-144.14;100.00
7075;BME280;3578;51.568;6.932;2023-02-18T10:55:10;47925.38;;;-144.14;100.00
7075;BME280;3578;51.568;6.932;2023-02-18T10:57:46;47903.38;;;-144.14;100.00
7075;BME280;3578;51.568;6.932;2023-02-18T11:00:20;47873.34;;;-144.14;100.00
7075;BME280;3578;51.568;6.932;2023-02-18T11:03:10;47831.34;;;-144.14;100.00
7075;BME280;3578;51.568;6.932;2023-02-18T11:05:40;47819.34;;;-144.14;100.00
7075;BME280;3578;51.568;6.932;2023-02-18T11:08:10;47785.31;;;-144.14;100.00
7075;BME280;3578;51.568;6.932;2023-02-18T11:10:44;47735.28;;;-144.14;100.00
7075;BME280;3578;51.568;6.932;2023-02-18T11:13:14;47747.31;;;-144.14;100.00
7075;BME280;3578;51.568;6.932;2023-02-18T11:15:56;47879.34;;;-144.14;100.00
7075;BME280;3578;51.568;6.932;2023-02-18T11:18:38;47763.31;;;-144.14;100.00
7075;BME280;3578;51.568;6.932;2023-02-18T11:21:23;47827.34;;;-144.14;100.00
7075;BME280;3578;51.568;6.932;2023-02-18T11:23:55;47737.28;;;-144.14;100.00
7075;BME280;3578;51.568;6.932;2023-02-18T11:26:29;47739.31;;;-144.14;100.00
7075;BME280;3578;51.568;6.932;2023-02-18T11:29:02;47713.28;;;-144.14;100.00
7075;BME280;3578;51.568;6.932;2023-02-18T11:31:40;47771.31;;;-144.14;100.00
7075;BME280;3578;51.568;6.932;2023-02-18T11:34:15;47715.28;;;-144.14;100.00
7075;BME280;3578;51.568;6.932;2023-02-18T11:36:44;47607.25;;;-144.14;100.00
7075;BME280;3578;51.568;6.932;2023-02-18T11:39:19;47595.25;;;-144.14;100.00
7075;BME280;3578;51.568;6.932;2023-02-18T11:41:54;47515.22;;;-144.14;100.00
7075;BME280;3578;51.568;6.932;2023-02-18T11:44:26;47451.19;;;-144.14;100.00
7075;BME280;3578;51.568;6.932;2023-02-18T11:47:03;47397.19;;;-144.14;100.00
7075;BME280;3578;51.568;6.932;2023-02-18T11:49:32;47411.19;;;-144.14;100.00
7075;BME280;3578;51.568;6.932;2023-02-18T11:52:13;47403.19;;;-144.14;100.00
7075;BME280;3578;51.568;6.932;2023-02-18T11:54:42;47335.16;;;-144.14;100.00
7075;BME280;3578;51.568;6.932;2023-02-18T11:57:26;47339.16;;;-144.14;100.00
7075;BME280;3578;51.568;6.932;2023-02-18T11:59:54;47325.16;;;-144.14;100.00
7075;BME280;3578;51.568;6.932;2023-02-18T12:02:30;47283.13;;;-144.14;100.00
7075;BME280;3578;51.568;6.932;2023-02-18T12:05:03;47205.13;;;-144.14;100.00
7075;BME280;3578;51.568;6.932;2023-02-18T12:07:44;47217.13;;;-144.14;100.00
7075;BME280;3578;51.568;6.932;2023-02-18T12:10:21;47125.09;;;-144.14;100.00
7075;BME280;3578;51.568;6.932;2023-02-18T12:13:00;47135.09;;;-144.14;100.00
7075;BME280;3578;51.568;6.932;2023-02-18T12:15:42;47089.09;;;-144.14;100.00
7075;BME280;3578;51.568;6.932;2023-02-18T12:21:41;47155.09;;;-144.14;100.00
7075;BME280;3578;51.568;6.932;2023-02-18T12:24:31;47159.09;;;-144.14;100.00
7075;BME280;3578;51.568;6.932;2023-02-18T12:27:09;47153.09;;;-144.14;100.00
7075;BME280;3578;51.568;6.932;2023-02-18T12:30:02;47083.09;;;-144.14;100.00
7075;BME280;3578;51.568;6.932;2023-02-18T12:32:41;47087.09;;;-144.14;100.00
7075;BME280;3578;51.568;6.932;2023-02-18T12:35:36;47035.09;;;-144.14;100.00
7075;BME280;3578;51.568;6.932;2023-02-18T12:41:43;46999.06;;;-144.14;100.00
7075;BME280;3578;51.568;6.932;2023-02-18T12:44:29;46959.06;;;-144.14;100.00
7075;BME280;3578;51.568;6.932;2023-02-18T12:47:27;46887.06;;;-144.14;100.00
7075;BME280;3578;51.568;6.932;2023-02-18T12:53:21;46819.03;;;-144.14;100.00
7075;BME280;3578;51.568;6.932;2023-02-18T12:58:54;46779.03;;;-144.14;100.00
7075;BME280;3578;51.568;6.932;2023-02-18T13:01:38;46791.03;;;-144.14;100.00
7075;BME280;3578;51.568;6.932;2023-02-18T13:04:29;46767.03;;;-144.14;100.00
7075;BME280;3578;51.568;6.932;2023-02-18T13:07:28;46735.03;;;-144.14;100.00
7075;BME280;3578;51.568;6.932;2023-02-18T13:10:40;46759.03;;;-144.14;100.00
7075;BME280;3578;51.568;6.932;2023-02-18T13:13:13;46687.03;;;-144.14;100.00
7075;BME280;3578;51.568;6.932;2023-02-18T13:15:44;46627.03;;;-144.14;100.00
7075;BME280;3578;51.568;6.932;2023-02-18T13:18:19;46607.03;;;-144.14;100.00
7075;BME280;3578;51.568;6.932;2023-02-18T13:20:52;46623.03;;;-144.14;100.00
7075;BME280;3578;51.568;6.932;2023-02-18T13:23:23;46657.03;;;-144.14;100.00
7075;BME280;3578;51.568;6.932;2023-02-18T13:25:55;46653.03;;;-144.14;100.00
7075;BME280;3578;51.568;6.932;2023-02-18T13:28:31;46627.03;;;-144.14;100.00
7075;BME280;3578;51.568;6.932;2023-02-18T13:31:18;46619.03;;;-144.14;100.00